Time;durP1;ratioP1;P1;durP2;ratioP2;P2;SDS_P1;SDS_P2;PMS_P1;PMS_P2;Temp;Humidity;BMP_temperature;BMP_pressure;BME280_temperature;BME280_humidity;BME280_pressure;Samples;Min_cycle;Max_cycle;Signal;HPM_P1;HPM_P2
2022/01/29 00:01:39;;;;;;;;;;;;;;;18.28;59.08;101292.31;5016569;28;1416;-60
2022/01/29 00:04:06;;;;;;;;;;;;;;;18.27;59.54;101289.75;5005583;28;1543;-63
2022/01/29 00:06:33;;;;;;;;;;;;;;;18.26;58.94;101294.28;5007985;28;1522;-60
2022/01/29 00:08:59;;;;;;;;;;;;;;;18.29;59.33;101291.34;5010994;28;1639;-60
2022/01/29 00:11:30;;;;;;;;;;;;;;;18.29;59.26;101301.19;5008103;28;1353;-63
2022/01/29 00:13:57;;;;;;;;;;;;;;;18.25;59.25;101297.91;5007481;28;1277;-60
2022/01/29 00:16:23;;;;;;;;;;;;;;;18.24;59.01;101304.25;5011223;28;1906;-60
2022/01/29 00:18:50;;;;;;;;;;;;;;;18.26;59.30;101320.16;5011143;28;1765;-63
2022/01/29 00:21:16;;;;;;;;;;;;;;;18.23;59.14;101301.69;5014382;28;1385;-60
2022/01/29 00:23:43;;;;;;;;;;;;;;;18.25;58.85;101302.41;5013730;28;1531;-60
2022/01/29 00:26:11;;;;;;;;;;;;;;;18.25;58.89;101300.56;5008041;28;1586;-60
2022/01/29 00:28:39;;;;;;;;;;;;;;;18.22;59.04;101308.84;5005950;28;1576;-60
2022/01/29 00:31:05;;;;;;;;;;;;;;;18.23;58.37;101309.72;5013377;28;1411;-62
2022/01/29 00:33:32;;;;;;;;;;;;;;;18.21;58.44;101300.94;5013908;28;1707;-63
2022/01/29 00:35:58;;;;;;;;;;;;;;;18.24;58.41;101312.28;5010410;28;1910;-62
2022/01/29 00:38:25;;;;;;;;;;;;;;;18.23;58.66;101315.06;5006422;28;1513;-60
2022/01/29 00:40:52;;;;;;;;;;;;;;;18.19;58.48;101318.94;5011507;28;1479;-60
2022/01/29 00:43:18;;;;;;;;;;;;;;;18.21;58.44;101330.38;5012683;28;1327;-59
2022/01/29 00:45:46;;;;;;;;;;;;;;;18.19;58.21;101329.66;5013944;28;1320;-59
2022/01/29 00:48:13;;;;;;;;;;;;;;;18.18;58.09;101330.59;5010669;28;1785;-60
2022/01/29 00:50:39;;;;;;;;;;;;;;;18.17;58.48;101332.44;5006765;28;1589;-60
2022/01/29 00:53:06;;;;;;;;;;;;;;;18.18;58.56;101330.59;5011853;28;1511;-60
2022/01/29 00:55:32;;;;;;;;;;;;;;;18.17;58.31;101334.28;5011644;28;1914;-60
2022/01/29 00:57:59;;;;;;;;;;;;;;;18.14;58.38;101327.31;5006788;28;1373;-62
2022/01/29 01:00:26;;;;;;;;;;;;;;;18.12;58.42;101323.88;5008876;28;1349;-63
2022/01/29 01:02:54;;;;;;;;;;;;;;;18.13;58.48;101340.81;5010595;28;1355;-63
2022/01/29 01:05:20;;;;;;;;;;;;;;;18.14;57.94;101337.16;5010193;28;1451;-63
2022/01/29 01:07:47;;;;;;;;;;;;;;;18.06;58.39;101325.22;5004498;28;1530;-63
2022/01/29 01:10:14;;;;;;;;;;;;;;;18.06;58.61;101330.59;5010356;28;1711;-60
2022/01/29 01:12:40;;;;;;;;;;;;;;;18.11;58.30;101338.25;5004213;28;1648;-62
2022/01/29 01:15:07;;;;;;;;;;;;;;;18.10;58.37;101331.19;5009895;28;1558;-60
2022/01/29 01:17:34;;;;;;;;;;;;;;;18.11;58.24;101329.38;5008594;28;1902;-60
2022/01/29 01:20:03;;;;;;;;;;;;;;;18.11;59.05;101322.19;5007112;28;1580;-63
2022/01/29 01:22:29;;;;;;;;;;;;;;;18.11;58.04;101335.59;4999104;28;1068;-60
2022/01/29 01:24:56;;;;;;;;;;;;;;;18.07;58.21;101332.28;5008360;28;1566;-62
2022/01/29 01:27:23;;;;;;;;;;;;;;;18.07;58.07;101326.06;5010053;28;1582;-60
2022/01/29 01:29:49;;;;;;;;;;;;;;;18.03;58.24;101328.13;5006135;28;1517;-60
2022/01/29 01:32:16;;;;;;;;;;;;;;;18.01;58.17;101316.69;5013769;28;2044;-63
2022/01/29 01:34:46;;;;;;;;;;;;;;;18.02;58.38;101322.88;5010607;28;1405;-63
2022/01/29 01:37:22;;;;;;;;;;;;;;;18.01;58.36;101321.19;5010699;28;1906;-60
2022/01/29 01:39:49;;;;;;;;;;;;;;;17.99;58.17;101307.06;5010800;28;1352;-59
2022/01/29 01:42:15;;;;;;;;;;;;;;;18.01;58.19;101311.34;5009230;28;1527;-60
2022/01/29 01:44:46;;;;;;;;;;;;;;;18.01;58.25;101314.00;5010222;28;1385;-63
2022/01/29 01:47:13;;;;;;;;;;;;;;;18.06;58.15;101329.72;5011625;28;1341;-60
2022/01/29 01:49:39;;;;;;;;;;;;;;;18.01;58.01;101311.34;5009168;28;1357;-62
2022/01/29 01:52:08;;;;;;;;;;;;;;;18.06;58.10;101324.34;5006822;28;1151;-63
2022/01/29 01:54:36;;;;;;;;;;;;;;;18.06;58.09;101313.66;5002840;28;1527;-62
2022/01/29 01:57:03;;;;;;;;;;;;;;;18.07;57.97;101316.22;5011866;28;1914;-60
2022/01/29 01:59:30;;;;;;;;;;;;;;;18.04;57.99;101316.44;5009846;28;1739;-60
2022/01/29 02:01:57;;;;;;;;;;;;;;;18.06;57.89;101297.59;5013726;28;1963;-63
2022/01/29 02:04:24;;;;;;;;;;;;;;;18.06;57.98;101310.97;5008613;28;1321;-63
2022/01/29 02:06:51;;;;;;;;;;;;;;;18.07;57.94;101310.03;5009159;28;1668;-59
2022/01/29 02:09:20;;;;;;;;;;;;;;;18.05;57.80;101317.31;5008819;28;1527;-63
2022/01/29 02:11:51;;;;;;;;;;;;;;;18.03;57.78;101309.41;5004316;28;1965;-61
2022/01/29 02:14:18;;;;;;;;;;;;;;;18.06;57.71;101335.94;5007885;28;1361;-59
2022/01/29 02:16:45;;;;;;;;;;;;;;;18.05;57.87;101333.38;5012331;28;1975;-62
2022/01/29 02:19:11;;;;;;;;;;;;;;;18.08;57.21;101343.81;5009093;28;1727;-60
2022/01/29 02:21:39;;;;;;;;;;;;;;;18.11;57.57;101335.59;5002458;28;1699;-63
2022/01/29 02:24:06;;;;;;;;;;;;;;;18.04;57.49;101337.84;5008776;28;1592;-62
2022/01/29 02:26:32;;;;;;;;;;;;;;;18.10;57.18;101333.84;5012394;28;1404;-63
2022/01/29 02:28:59;;;;;;;;;;;;;;;18.06;57.55;101335.06;5005353;28;1520;-63
2022/01/29 02:31:26;;;;;;;;;;;;;;;18.10;57.92;101336.53;5014288;28;1360;-63
2022/01/29 02:33:52;;;;;;;;;;;;;;;18.08;57.68;101341.16;5012153;28;1750;-59
2022/01/29 02:36:19;;;;;;;;;;;;;;;18.12;57.83;101345.31;5004186;28;1906;-59
2022/01/29 02:38:47;;;;;;;;;;;;;;;18.12;57.63;101347.13;5008885;28;1564;-62
2022/01/29 02:41:13;;;;;;;;;;;;;;;18.11;57.64;101348.13;5008351;28;1479;-59
2022/01/29 02:43:44;;;;;;;;;;;;;;;18.10;58.31;101341.88;5010810;28;1487;-62
2022/01/29 02:46:21;;;;;;;;;;;;;;;18.06;57.90;101335.06;5006994;28;1349;-58
2022/01/29 02:48:48;;;;;;;;;;;;;;;18.06;57.97;101343.09;5007433;28;1578;-59
2022/01/29 02:51:15;;;;;;;;;;;;;;;18.04;57.70;101337.84;5006380;28;1508;-62
2022/01/29 02:53:42;;;;;;;;;;;;;;;18.06;57.93;101340.41;5006145;28;1388;-64
2022/01/29 02:56:10;;;;;;;;;;;;;;;18.02;58.06;101349.66;5003079;28;1902;-63
2022/01/29 02:58:37;;;;;;;;;;;;;;;18.04;58.03;101355.72;5016408;28;1546;-59
2022/01/29 03:01:04;;;;;;;;;;;;;;;18.03;57.88;101346.84;5010366;28;1607;-59
2022/01/29 03:03:31;;;;;;;;;;;;;;;18.02;57.54;101349.66;5012294;28;1765;-63
2022/01/29 03:05:58;;;;;;;;;;;;;;;18.03;57.93;101340.66;5008212;28;1479;-63
2022/01/29 03:08:24;;;;;;;;;;;;;;;18.07;57.55;101355.50;5009222;28;1583;-59
2022/01/29 03:10:51;;;;;;;;;;;;;;;18.05;57.94;101358.31;5010363;28;1432;-59
2022/01/29 03:13:18;;;;;;;;;;;;;;;18.08;57.78;101370.59;5011029;28;1400;-59
2022/01/29 03:15:45;;;;;;;;;;;;;;;18.01;57.72;101364.84;5007623;28;1026;-63
2022/01/29 03:18:12;;;;;;;;;;;;;;;18.05;57.81;101360.13;5002717;28;1980;-63
2022/01/29 03:20:38;;;;;;;;;;;;;;;18.05;57.81;101360.13;5015524;28;1473;-59
2022/01/29 03:23:05;;;;;;;;;;;;;;;18.05;57.72;101360.97;5008856;28;1513;-63
2022/01/29 03:25:31;;;;;;;;;;;;;;;18.06;57.61;101369.84;5008468;28;1743;-59
2022/01/29 03:27:58;;;;;;;;;;;;;;;18.08;57.58;101360.75;5009967;28;1337;-59
2022/01/29 03:30:26;;;;;;;;;;;;;;;18.04;57.54;101366.44;5006051;28;1704;-62
2022/01/29 03:32:52;;;;;;;;;;;;;;;18.06;57.54;101376.09;5012805;28;1758;-63
2022/01/29 03:35:19;;;;;;;;;;;;;;;18.08;57.49;101376.81;5009517;28;1447;-63
2022/01/29 03:37:45;;;;;;;;;;;;;;;18.09;57.52;101375.00;5009659;28;1911;-63
2022/01/29 03:40:12;;;;;;;;;;;;;;;18.06;57.67;101365.38;5011836;28;1384;-63
2022/01/29 03:42:44;;;;;;;;;;;;;;;18.06;57.84;101373.41;5011097;28;1361;-62
2022/01/29 03:45:13;;;;;;;;;;;;;;;18.08;57.61;101378.63;5006902;28;1023;-58
2022/01/29 03:47:41;;;;;;;;;;;;;;;18.06;57.32;101359.16;5005410;28;1539;-63
2022/01/29 03:50:08;;;;;;;;;;;;;;;18.10;57.47;101374.00;5009246;28;1572;-63
2022/01/29 03:52:34;;;;;;;;;;;;;;;18.08;57.54;101378.63;5007663;28;1389;-63
2022/01/29 03:55:01;;;;;;;;;;;;;;;18.07;57.51;101380.44;5006813;28;1388;-59
2022/01/29 03:57:28;;;;;;;;;;;;;;;18.08;57.49;101386.66;5012051;28;2007;-62
2022/01/29 03:59:54;;;;;;;;;;;;;;;18.07;57.38;101395.66;5014085;28;1715;-59
2022/01/29 04:02:21;;;;;;;;;;;;;;;18.07;57.47;101391.16;4999252;28;1708;-60
2022/01/29 04:04:49;;;;;;;;;;;;;;;18.03;57.67;101396.84;5007596;28;1620;-59
2022/01/29 04:07:16;;;;;;;;;;;;;;;18.02;57.26;101401.34;5016358;28;1524;-59
2022/01/29 04:09:47;;;;;;;;;;;;;;;18.03;57.33;101399.53;4999730;28;1345;-63
2022/01/29 04:12:14;;;;;;;;;;;;;;;18.01;57.37;101386.25;5009992;28;1727;-59
2022/01/29 04:14:41;;;;;;;;;;;;;;;18.04;57.33;101396.72;5008726;28;1779;-59
2022/01/29 04:17:08;;;;;;;;;;;;;;;18.02;57.62;101403.16;4999487;28;1910;-63
2022/01/29 04:19:35;;;;;;;;;;;;;;;17.99;57.31;101398.06;5008605;28;1168;-63
2022/01/29 04:22:03;;;;;;;;;;;;;;;17.98;57.44;101399.00;5007696;28;1763;-59
2022/01/29 04:24:30;;;;;;;;;;;;;;;18.03;57.34;101408.41;5006342;28;1631;-59
2022/01/29 04:26:57;;;;;;;;;;;;;;;17.98;57.51;101393.66;5009493;28;1423;-62
2022/01/29 04:29:26;;;;;;;;;;;;;;;18.02;57.40;101413.88;5007456;28;1516;-59
2022/01/29 04:32:05;;;;;;;;;;;;;;;17.99;58.02;101414.97;5011424;28;1077;-59
2022/01/29 04:34:31;;;;;;;;;;;;;;;18.02;57.48;101403.16;5005861;28;1396;-59
2022/01/29 04:36:58;;;;;;;;;;;;;;;18.04;57.19;101411.94;5008765;28;1914;-62
2022/01/29 04:39:26;;;;;;;;;;;;;;;18.05;57.19;101413.66;5009414;28;1667;-59
2022/01/29 04:41:52;;;;;;;;;;;;;;;18.01;57.23;101420.22;5007037;28;1727;-59
2022/01/29 04:44:19;;;;;;;;;;;;;;;18.06;57.32;101436.75;5006220;28;1513;-62
2022/01/29 04:46:46;;;;;;;;;;;;;;;18.01;57.36;101425.56;4997298;28;979;-59
2022/01/29 04:49:12;;;;;;;;;;;;;;;18.00;56.93;101426.50;5003784;28;1515;-59
2022/01/29 04:51:39;;;;;;;;;;;;;;;18.03;57.27;101440.53;5010684;28;1778;-63
2022/01/29 04:54:05;;;;;;;;;;;;;;;18.05;57.11;101430.56;5004039;28;1639;-59
2022/01/29 04:56:34;;;;;;;;;;;;;;;18.01;57.20;101433.59;5006419;28;1328;-63
2022/01/29 04:59:01;;;;;;;;;;;;;;;18.05;57.05;101441.25;5010490;28;1615;-62
2022/01/29 05:01:27;;;;;;;;;;;;;;;18.04;56.98;101428.84;5006005;28;1373;-62
2022/01/29 05:03:54;;;;;;;;;;;;;;;18.07;57.07;101446.50;5010413;28;1766;-59
2022/01/29 05:06:20;;;;;;;;;;;;;;;18.03;57.00;101439.69;5005959;28;1573;-63
2022/01/29 05:08:47;;;;;;;;;;;;;;;18.05;56.79;101453.81;5006714;28;1580;-59
2022/01/29 05:11:15;;;;;;;;;;;;;;;18.05;56.92;101460.00;5006015;28;1577;-59
2022/01/29 05:13:43;;;;;;;;;;;;;;;17.97;56.99;101461.53;5008302;28;1381;-59
2022/01/29 05:16:37;;;;;;;;;;;;;;;18.00;57.19;101474.69;5008383;28;983;-63
2022/01/29 05:27:45;;;;;;;;;;;;;;;17.97;57.18;101481.13;4923521;29;1792;-59
2022/01/29 05:30:13;;;;;;;;;;;;;;;17.95;57.17;101488.41;4966934;28;1983;-59
2022/01/29 05:32:39;;;;;;;;;;;;;;;17.98;57.24;101474.78;5012636;28;1836;-59
2022/01/29 05:35:06;;;;;;;;;;;;;;;18.06;56.80;101495.66;5003435;28;1564;-63
2022/01/29 05:37:33;;;;;;;;;;;;;;;18.37;56.39;101499.63;5013288;28;1907;-62
2022/01/29 05:39:59;;;;;;;;;;;;;;;18.90;56.55;101512.66;5014416;28;1404;-58
2022/01/29 05:42:26;;;;;;;;;;;;;;;19.16;54.89;101510.66;5014752;28;1191;-62
2022/01/29 05:44:53;;;;;;;;;;;;;;;19.28;53.97;101514.22;5013481;28;1405;-59
2022/01/29 05:47:20;;;;;;;;;;;;;;;19.32;54.41;101521.06;5014051;28;1357;-59
2022/01/29 05:49:47;;;;;;;;;;;;;;;19.28;54.85;101511.56;5013841;28;1198;-58
2022/01/29 05:52:14;;;;;;;;;;;;;;;19.34;54.58;101513.75;5014268;28;1342;-58
2022/01/29 05:54:40;;;;;;;;;;;;;;;19.43;54.32;101526.44;5013228;28;1452;-62
2022/01/29 05:57:07;;;;;;;;;;;;;;;19.60;53.78;101526.94;5013218;28;1906;-61
2022/01/29 05:59:36;;;;;;;;;;;;;;;19.81;52.81;101529.78;5004758;28;1587;-63
2022/01/29 06:02:03;;;;;;;;;;;;;;;19.95;55.71;101539.41;5005776;28;1636;-59
2022/01/29 06:04:31;;;;;;;;;;;;;;;19.78;57.25;101530.88;5006662;28;1066;-61
2022/01/29 06:06:57;;;;;;;;;;;;;;;19.92;55.32;101537.84;5011330;28;1751;-59
2022/01/29 06:09:24;;;;;;;;;;;;;;;19.90;55.45;101549.69;5003856;28;1456;-62
2022/01/29 06:11:50;;;;;;;;;;;;;;;19.95;55.78;101540.25;5013128;28;1591;-63
2022/01/29 06:14:17;;;;;;;;;;;;;;;20.20;55.24;101531.09;5002382;28;1384;-59
2022/01/29 06:16:43;;;;;;;;;;;;;;;19.95;55.90;101558.22;5010607;28;1023;-62
2022/01/29 06:19:10;;;;;;;;;;;;;;;19.81;56.81;101557.47;5006876;28;1906;-59
2022/01/29 06:21:38;;;;;;;;;;;;;;;20.06;54.58;101556.38;5008472;28;1551;-60
2022/01/29 06:24:05;;;;;;;;;;;;;;;19.86;55.45;101563.34;5008656;28;1447;-60
2022/01/29 06:26:31;;;;;;;;;;;;;;;19.81;56.88;101573.56;5003198;28;1891;-60
2022/01/29 06:28:59;;;;;;;;;;;;;;;19.71;56.56;101569.91;5002195;28;1608;-62
2022/01/29 06:31:25;;;;;;;;;;;;;;;19.70;56.99;101570.03;5004124;28;968;-66
2022/01/29 06:33:52;;;;;;;;;;;;;;;19.85;56.61;101564.28;5005018;28;1770;-62
2022/01/29 06:36:18;;;;;;;;;;;;;;;19.76;56.60;101570.41;5006193;28;1404;-62
2022/01/29 06:38:46;;;;;;;;;;;;;;;19.86;57.40;101579.44;5013304;28;1979;-63
2022/01/29 06:41:13;;;;;;;;;;;;;;;19.68;57.03;101584.41;5008481;28;1561;-64
2022/01/29 06:43:39;;;;;;;;;;;;;;;19.86;58.02;101590.19;5007490;28;1506;-62
2022/01/29 06:46:06;;;;;;;;;;;;;;;19.83;59.12;101587.72;4995629;28;1868;-62
2022/01/29 06:48:32;;;;;;;;;;;;;;;19.71;58.80;101572.59;5002192;28;1726;-61
2022/01/29 06:50:59;;;;;;;;;;;;;;;19.71;60.21;101564.53;5009128;28;1365;-67
2022/01/29 06:53:26;;;;;;;;;;;;;;;19.95;60.01;101583.22;5005140;28;1380;-67
2022/01/29 06:55:54;;;;;;;;;;;;;;;19.92;59.25;101570.06;5002253;28;1746;-65
2022/01/29 06:58:20;;;;;;;;;;;;;;;19.98;61.52;101582.13;5007326;28;1906;-63
2022/01/29 07:00:47;;;;;;;;;;;;;;;20.05;60.28;101575.28;5005764;28;1522;-63
2022/01/29 07:03:13;;;;;;;;;;;;;;;19.84;60.65;101584.06;4999709;28;1739;-62
2022/01/29 07:05:40;;;;;;;;;;;;;;;19.67;61.49;101585.34;5009466;28;1573;-68
2022/01/29 07:08:07;;;;;;;;;;;;;;;19.62;60.63;101592.09;5001816;28;1631;-61
2022/01/29 07:10:34;;;;;;;;;;;;;;;19.57;61.09;101596.94;5005424;28;1384;-68
2022/01/29 07:13:02;;;;;;;;;;;;;;;19.61;59.99;101593.03;5003867;28;1439;-63
2022/01/29 07:15:28;;;;;;;;;;;;;;;19.57;61.25;101599.63;5005155;28;1036;-66
2022/01/29 07:17:55;;;;;;;;;;;;;;;19.43;61.11;101600.69;5009457;28;1910;-64
2022/01/29 07:20:21;;;;;;;;;;;;;;;19.32;59.11;101611.38;5010645;28;1345;-62
2022/01/29 07:22:48;;;;;;;;;;;;;;;19.42;59.01;101617.75;5008136;28;1409;-66
2022/01/29 07:25:15;;;;;;;;;;;;;;;19.32;59.92;101616.72;5009112;28;1356;-62
2022/01/29 07:27:41;;;;;;;;;;;;;;;19.50;59.31;101606.41;5006780;28;1762;-61
2022/01/29 07:30:10;;;;;;;;;;;;;;;19.38;60.09;101609.09;5004845;28;1763;-61
2022/01/29 07:32:42;;;;;;;;;;;;;;;19.41;59.24;101616.88;5008607;28;1535;-60
2022/01/29 07:35:09;;;;;;;;;;;;;;;19.36;58.98;101619.09;5005675;28;1572;-59
2022/01/29 07:37:36;;;;;;;;;;;;;;;19.25;59.21;101619.88;5009375;28;1902;-61
2022/01/29 07:40:02;;;;;;;;;;;;;;;19.24;59.14;101623.56;5009513;28;1279;-61
2022/01/29 07:42:29;;;;;;;;;;;;;;;19.08;59.21;101618.50;5004061;28;1399;-61
2022/01/29 07:44:55;;;;;;;;;;;;;;;19.05;59.57;101624.06;5006085;28;1447;-61
2022/01/29 07:47:23;;;;;;;;;;;;;;;19.10;58.85;101614.81;5015284;28;1585;-62
2022/01/29 07:49:50;;;;;;;;;;;;;;;19.04;58.95;101627.75;5012622;28;1409;-62
2022/01/29 07:52:16;;;;;;;;;;;;;;;19.03;58.94;101625.16;5012173;28;1349;-61
2022/01/29 07:54:43;;;;;;;;;;;;;;;19.11;58.75;101638.00;5008960;28;1131;-59
2022/01/29 07:57:09;;;;;;;;;;;;;;;19.28;58.27;101624.19;5012530;28;1638;-58
2022/01/29 07:59:36;;;;;;;;;;;;;;;19.22;58.00;101630.84;5014125;28;1971;-63
2022/01/29 08:02:03;;;;;;;;;;;;;;;19.23;57.08;101620.97;4998961;28;1652;-61
2022/01/29 08:04:31;;;;;;;;;;;;;;;19.10;57.33;101637.16;5006444;28;1388;-61
2022/01/29 08:06:57;;;;;;;;;;;;;;;19.04;57.78;101633.09;5005525;28;1723;-63
2022/01/29 08:09:24;;;;;;;;;;;;;;;19.11;57.51;101635.31;5011343;28;1726;-62
2022/01/29 08:11:51;;;;;;;;;;;;;;;19.04;57.96;101616.16;5003314;28;1472;-62
2022/01/29 08:14:17;;;;;;;;;;;;;;;19.10;57.85;101621.06;5007576;28;1360;-62
2022/01/29 08:16:44;;;;;;;;;;;;;;;19.14;57.73;101632.38;5014150;28;1012;-62
2022/01/29 08:19:10;;;;;;;;;;;;;;;19.13;57.65;101630.69;5010274;28;1981;-62
2022/01/29 08:21:39;;;;;;;;;;;;;;;19.20;57.63;101637.28;5003054;28;1440;-62
2022/01/29 08:24:06;;;;;;;;;;;;;;;19.16;57.67;101646.53;5007346;28;1611;-62
2022/01/29 08:26:33;;;;;;;;;;;;;;;19.17;58.55;101657.16;5006760;28;1639;-62
2022/01/29 08:28:59;;;;;;;;;;;;;;;19.14;58.19;101648.47;5008130;28;1512;-62
2022/01/29 08:31:26;;;;;;;;;;;;;;;19.14;58.48;101653.84;5006184;28;1024;-62
2022/01/29 08:33:52;;;;;;;;;;;;;;;19.14;58.21;101645.78;5007240;28;1703;-62
2022/01/29 08:36:19;;;;;;;;;;;;;;;19.19;57.86;101638.28;5006598;28;1564;-62
2022/01/29 08:38:47;;;;;;;;;;;;;;;19.24;57.65;101647.69;5006432;28;1914;-62
2022/01/29 08:41:13;;;;;;;;;;;;;;;19.30;58.19;101646.38;5006235;28;1604;-62
2022/01/29 08:43:40;;;;;;;;;;;;;;;19.33;57.30;101635.41;5006467;28;1608;-62
2022/01/29 08:46:07;;;;;;;;;;;;;;;19.27;58.49;101647.44;5005886;28;1067;-62
2022/01/29 08:48:33;;;;;;;;;;;;;;;19.33;57.81;101648.81;5002802;28;1424;-62
2022/01/29 08:51:00;;;;;;;;;;;;;;;19.29;57.58;101658.06;5006793;28;1469;-62
2022/01/29 08:53:26;;;;;;;;;;;;;;;19.20;58.37;101659.63;5006091;28;1702;-62
2022/01/29 08:55:54;;;;;;;;;;;;;;;19.25;57.48;101652.06;5006213;28;1631;-63
2022/01/29 08:58:21;;;;;;;;;;;;;;;19.20;57.76;101650.69;5009287;28;1898;-63
2022/01/29 09:00:47;;;;;;;;;;;;;;;19.20;58.35;101654.25;5007771;28;1243;-62
2022/01/29 09:03:15;;;;;;;;;;;;;;;19.28;58.21;101653.69;5011328;28;1617;-62
2022/01/29 09:05:42;;;;;;;;;;;;;;;19.25;57.69;101645.84;5007788;28;1396;-62
2022/01/29 09:08:09;;;;;;;;;;;;;;;19.21;58.60;101653.25;5003628;28;1983;-62
2022/01/29 09:10:35;;;;;;;;;;;;;;;19.25;57.34;101643.16;5007709;28;1632;-63
2022/01/29 09:13:03;;;;;;;;;;;;;;;19.19;58.74;101654.34;5006466;28;1467;-62
2022/01/29 09:15:30;;;;;;;;;;;;;;;19.24;57.71;101647.69;5007307;28;1062;-62
2022/01/29 09:17:57;;;;;;;;;;;;;;;19.28;57.60;101665.25;5010840;28;1977;-62
2022/01/29 09:20:23;;;;;;;;;;;;;;;19.34;58.52;101663.94;5006191;28;1643;-63
2022/01/29 09:22:50;;;;;;;;;;;;;;;19.33;57.91;101654.16;5006372;28;1440;-62
2022/01/29 09:25:16;;;;;;;;;;;;;;;19.30;58.31;101657.09;5005326;28;931;-62
2022/01/29 09:27:43;;;;;;;;;;;;;;;19.28;57.60;101651.00;5008411;28;1766;-63
2022/01/29 09:30:11;;;;;;;;;;;;;;;19.26;58.93;101652.94;5007909;28;1781;-63
2022/01/29 09:32:38;;;;;;;;;;;;;;;19.33;57.86;101662.22;4998896;28;1707;-63
2022/01/29 09:35:05;;;;;;;;;;;;;;;19.28;58.49;101645.63;5005824;28;1463;-63
2022/01/29 09:37:32;;;;;;;;;;;;;;;19.33;58.10;101640.75;5005655;28;1439;-62
2022/01/29 09:39:58;;;;;;;;;;;;;;;19.37;57.79;101652.13;5005008;28;1973;-63
2022/01/29 09:42:25;;;;;;;;;;;;;;;19.35;57.77;101646.88;5003840;28;1754;-63
2022/01/29 09:44:52;;;;;;;;;;;;;;;19.39;57.45;101651.03;5003636;28;1574;-63
2022/01/29 09:47:23;;;;;;;;;;;;;;;19.41;57.39;101646.38;5014046;28;1727;-62
2022/01/29 09:49:50;;;;;;;;;;;;;;;19.34;58.72;101642.47;5006022;28;1436;-62
2022/01/29 09:52:17;;;;;;;;;;;;;;;19.32;57.94;101631.03;5004544;28;1075;-62
2022/01/29 09:54:47;;;;;;;;;;;;;;;19.35;57.92;101641.50;5003865;28;1490;-62
2022/01/29 09:57:13;;;;;;;;;;;;;;;19.37;58.38;101639.56;5003283;28;1570;-62
2022/01/29 09:59:40;;;;;;;;;;;;;;;19.36;58.05;101645.91;5004738;28;1976;-62
2022/01/29 10:02:12;;;;;;;;;;;;;;;19.35;58.63;101651.38;5013966;28;1584;-62
2022/01/29 10:04:47;;;;;;;;;;;;;;;19.36;58.06;101624.44;5006508;28;1711;-62
2022/01/29 10:07:14;;;;;;;;;;;;;;;19.34;58.34;101629.06;5004230;28;960;-62
2022/01/29 10:09:41;;;;;;;;;;;;;;;19.38;58.46;101627.03;5006938;28;1656;-63
2022/01/29 10:12:18;;;;;;;;;;;;;;;19.47;58.45;101619.09;5001526;28;1479;-62
2022/01/29 10:14:56;;;;;;;;;;;;;;;19.50;57.12;101638.59;5003613;28;1571;-62
2022/01/29 10:17:46;;;;;;;;;;;;;;;19.52;57.50;101615.19;4996584;28;1551;-62
2022/01/29 10:20:16;;;;;;;;;;;;;;;19.47;57.35;101619.09;5001990;28;1916;-63
2022/01/29 10:22:44;;;;;;;;;;;;;;;19.39;57.49;101597.38;5004171;28;964;-63
2022/01/29 10:25:12;;;;;;;;;;;;;;;19.39;57.71;101594.69;5006980;28;1046;-62
2022/01/29 10:27:39;;;;;;;;;;;;;;;19.38;57.54;101613.59;5011114;28;1751;-62
2022/01/29 10:30:09;;;;;;;;;;;;;;;19.48;58.13;101618.13;5008555;28;1395;-62
2022/01/29 10:32:35;;;;;;;;;;;;;;;19.45;57.27;101609.47;4997448;28;1388;-62
2022/01/29 10:35:02;;;;;;;;;;;;;;;19.43;58.36;101606.91;5004495;28;1477;-62
2022/01/29 10:37:30;;;;;;;;;;;;;;;19.38;58.38;101614.47;5004943;28;1392;-62
2022/01/29 10:39:57;;;;;;;;;;;;;;;19.36;57.48;101615.53;5003885;28;1986;-62
2022/01/29 10:42:25;;;;;;;;;;;;;;;19.39;58.13;101620.66;5006742;28;1738;-62
2022/01/29 10:44:52;;;;;;;;;;;;;;;19.34;57.36;101604.94;5006279;28;1727;-62
2022/01/29 10:47:19;;;;;;;;;;;;;;;19.39;57.76;101613.47;4996510;28;1528;-62
2022/01/29 10:49:53;;;;;;;;;;;;;;;19.38;58.11;101619.81;5006181;28;1529;-62
2022/01/29 10:52:26;;;;;;;;;;;;;;;19.37;57.47;101609.19;4994950;28;1651;-62
2022/01/29 10:54:59;;;;;;;;;;;;;;;19.34;58.49;101607.63;5003305;28;949;-62
2022/01/29 10:57:31;;;;;;;;;;;;;;;19.38;57.57;101609.09;5003065;28;1040;-62
2022/01/29 10:59:57;;;;;;;;;;;;;;;19.36;57.75;101628.94;5007206;28;1906;-62
2022/01/29 11:02:27;;;;;;;;;;;;;;;19.36;57.63;101611.03;4998623;28;1452;-62
2022/01/29 11:04:53;;;;;;;;;;;;;;;19.38;58.11;101610.94;5003013;28;1400;-62
2022/01/29 11:07:25;;;;;;;;;;;;;;;19.37;57.92;101615.41;5006451;28;1631;-63
2022/01/29 11:09:52;;;;;;;;;;;;;;;19.34;58.58;101602.25;5006385;28;1561;-62
2022/01/29 11:12:20;;;;;;;;;;;;;;;19.35;58.13;101609.31;5004647;28;1389;-62
2022/01/29 11:14:47;;;;;;;;;;;;;;;19.35;58.16;101612.00;5004927;28;1015;-62
2022/01/29 11:17:15;;;;;;;;;;;;;;;19.32;57.52;101603.31;5011596;28;1436;-62
2022/01/29 11:19:42;;;;;;;;;;;;;;;19.31;58.48;101610.53;5008899;28;1977;-62
2022/01/29 11:22:09;;;;;;;;;;;;;;;19.28;58.07;101610.78;5015024;28;1543;-62
2022/01/29 11:24:37;;;;;;;;;;;;;;;19.30;58.69;101611.50;5009939;28;1023;-62
2022/01/29 11:27:16;;;;;;;;;;;;;;;19.31;58.16;101607.00;5012352;28;1627;-62
2022/01/29 11:29:55;;;;;;;;;;;;;;;19.39;58.08;101605.41;5007615;28;1489;-62
2022/01/29 11:32:29;;;;;;;;;;;;;;;19.34;58.29;101602.25;5000419;28;1517;-62
2022/01/29 11:35:15;;;;;;;;;;;;;;;19.31;58.25;101602.47;5008521;28;1270;-62
2022/01/29 11:37:46;;;;;;;;;;;;;;;19.25;58.55;101611.84;4999838;28;1627;-62
2022/01/29 11:40:14;;;;;;;;;;;;;;;19.17;59.00;101595.47;5008405;28;1910;-62
2022/01/29 11:42:52;;;;;;;;;;;;;;;19.16;59.06;101595.59;5007887;28;1703;-62
2022/01/29 11:45:39;;;;;;;;;;;;;;;19.16;58.29;101584.88;5006793;28;1104;-62
2022/01/29 11:48:06;;;;;;;;;;;;;;;19.10;59.22;101594.25;5001106;28;1735;-62
2022/01/29 11:50:43;;;;;;;;;;;;;;;19.08;58.72;101580.97;5008876;28;1481;-62
2022/01/29 11:53:10;;;;;;;;;;;;;;;19.07;58.93;101584.59;5000526;28;1592;-62
2022/01/29 11:55:39;;;;;;;;;;;;;;;18.98;58.50;101592.47;5009500;28;1580;-63
2022/01/29 11:58:19;;;;;;;;;;;;;;;18.98;59.43;101593.34;5008850;28;1521;-62
2022/01/29 12:00:48;;;;;;;;;;;;;;;18.96;59.10;101587.25;4997953;28;1910;-62
2022/01/29 12:03:29;;;;;;;;;;;;;;;18.93;58.60;101582.09;5003095;28;1547;-62
2022/01/29 12:06:12;;;;;;;;;;;;;;;18.96;58.81;101570.28;4998066;28;1608;-62
2022/01/29 12:09:04;;;;;;;;;;;;;;;18.96;59.01;101568.50;5005929;28;1609;-62
2022/01/29 12:11:32;;;;;;;;;;;;;;;18.95;58.89;101577.50;5012101;28;1643;-62
2022/01/29 12:14:19;;;;;;;;;;;;;;;18.92;58.56;101571.50;5010991;28;1546;-61
2022/01/29 12:16:49;;;;;;;;;;;;;;;18.90;58.30;101568.06;4996528;28;1032;-62
2022/01/29 12:19:31;;;;;;;;;;;;;;;18.92;58.99;101568.81;5004374;28;1975;-62
2022/01/29 12:21:57;;;;;;;;;;;;;;;18.92;58.28;101569.69;5010455;28;1743;-62
2022/01/29 12:24:24;;;;;;;;;;;;;;;18.92;58.29;101564.34;5005124;28;1879;-62
2022/01/29 12:26:53;;;;;;;;;;;;;;;18.93;58.74;101566.03;5007366;28;1372;-62
2022/01/29 12:29:21;;;;;;;;;;;;;;;18.96;58.43;101565.81;5005522;28;1588;-62
2022/01/29 12:31:50;;;;;;;;;;;;;;;19.01;57.97;101573.50;5004892;28;995;-62
2022/01/29 12:34:17;;;;;;;;;;;;;;;19.04;58.03;101560.72;5008445;28;1648;-62
2022/01/29 12:36:43;;;;;;;;;;;;;;;19.01;58.89;101552.91;5007849;28;1829;-62
2022/01/29 12:39:14;;;;;;;;;;;;;;;19.05;58.42;101573.13;5003008;28;1981;-62
2022/01/29 12:41:44;;;;;;;;;;;;;;;19.08;58.14;101570.22;5007456;28;1329;-62
2022/01/29 12:44:18;;;;;;;;;;;;;;;19.10;58.24;101566.56;5006841;28;1961;-62
2022/01/29 12:46:46;;;;;;;;;;;;;;;19.11;58.03;101579.00;5013373;28;1008;-62
2022/01/29 12:49:14;;;;;;;;;;;;;;;19.13;58.40;101566.34;5004759;28;1570;-62
2022/01/29 12:51:50;;;;;;;;;;;;;;;19.17;58.36;101571.34;5010385;28;1627;-62
2022/01/29 12:54:16;;;;;;;;;;;;;;;19.17;58.67;101573.19;5006957;28;1857;-62
2022/01/29 12:56:43;;;;;;;;;;;;;;;19.21;57.88;101577.34;5006241;28;1521;-62
2022/01/29 12:59:11;;;;;;;;;;;;;;;19.20;58.38;101565.78;5005910;28;1977;-62
2022/01/29 13:01:39;;;;;;;;;;;;;;;19.21;58.39;101570.13;5001893;28;1667;-62